sensor_id;sensor_type;location;lat;lon;timestamp;temperature;humidity
4727;DHT22;2377;51.734;8.950;2023-10-09T00:01:44;13.20;1.00
4727;DHT22;2377;51.734;8.950;2023-10-09T00:04:12;13.10;1.00
4727;DHT22;2377;51.734;8.950;2023-10-09T00:06:41;13.10;99.90
4727;DHT22;2377;51.734;8.950;2023-10-09T00:09:09;13.00;99.90
4727;DHT22;2377;51.734;8.950;2023-10-09T00:11:56;13.00;1.00
4727;DHT22;2377;51.734;8.950;2023-10-09T00:14:26;13.00;1.00
4727;DHT22;2377;51.734;8.950;2023-10-09T00:16:59;12.90;1.00
4727;DHT22;2377;51.734;8.950;2023-10-09T00:19:43;12.90;1.00
4727;DHT22;2377;51.734;8.950;2023-10-09T00:22:12;12.90;99.90
4727;DHT22;2377;51.734;8.950;2023-10-09T00:24:52;12.90;99.90
4727;DHT22;2377;51.734;8.950;2023-10-09T00:27:37;12.80;99.90
4727;DHT22;2377;51.734;8.950;2023-10-09T00:30:10;12.80;99.90
4727;DHT22;2377;51.734;8.950;2023-10-09T00:32:42;12.80;99.90
4727;DHT22;2377;51.734;8.950;2023-10-09T00:35:17;12.70;1.00
4727;DHT22;2377;51.734;8.950;2023-10-09T00:38:05;12.70;1.00
4727;DHT22;2377;51.734;8.950;2023-10-09T00:40:41;12.60;1.00
4727;DHT22;2377;51.734;8.950;2023-10-09T00:43:12;12.60;1.00
4727;DHT22;2377;51.734;8.950;2023-10-09T00:45:40;12.60;1.00
4727;DHT22;2377;51.734;8.950;2023-10-09T00:48:11;12.60;1.00
4727;DHT22;2377;51.734;8.950;2023-10-09T00:50:48;12.60;1.00
4727;DHT22;2377;51.734;8.950;2023-10-09T00:53:19;12.60;1.00
4727;DHT22;2377;51.734;8.950;2023-10-09T00:55:57;12.60;1.00
4727;DHT22;2377;51.734;8.950;2023-10-09T00:58:37;12.60;1.00
4727;DHT22;2377;51.734;8.950;2023-10-09T01:01:05;12.60;1.00
4727;DHT22;2377;51.734;8.950;2023-10-09T01:03:42;12.60;1.00
4727;DHT22;2377;51.734;8.950;2023-10-09T01:06:11;12.80;1.00
4727;DHT22;2377;51.734;8.950;2023-10-09T01:08:47;12.90;1.00
4727;DHT22;2377;51.734;8.950;2023-10-09T01:11:34;13.00;1.00
4727;DHT22;2377;51.734;8.950;2023-10-09T01:14:12;13.10;1.00
4727;DHT22;2377;51.734;8.950;2023-10-09T01:16:40;13.10;1.00
4727;DHT22;2377;51.734;8.950;2023-10-09T01:19:14;13.10;1.00
4727;DHT22;2377;51.734;8.950;2023-10-09T01:21:49;13.10;1.00
4727;DHT22;2377;51.734;8.950;2023-10-09T01:24:18;13.30;1.00
4727;DHT22;2377;51.734;8.950;2023-10-09T01:26:48;13.30;1.00
4727;DHT22;2377;51.734;8.950;2023-10-09T01:29:20;13.40;1.00
4727;DHT22;2377;51.734;8.950;2023-10-09T01:31:54;13.40;1.00
4727;DHT22;2377;51.734;8.950;2023-10-09T01:34:22;13.40;1.00
4727;DHT22;2377;51.734;8.950;2023-10-09T01:36:51;13.50;1.00
4727;DHT22;2377;51.734;8.950;2023-10-09T01:39:23;13.50;1.00
4727;DHT22;2377;51.734;8.950;2023-10-09T01:41:55;13.50;1.00
4727;DHT22;2377;51.734;8.950;2023-10-09T01:44:27;13.60;1.00
4727;DHT22;2377;51.734;8.950;2023-10-09T01:46:56;13.70;1.00
4727;DHT22;2377;51.734;8.950;2023-10-09T01:49:24;13.80;1.00
4727;DHT22;2377;51.734;8.950;2023-10-09T01:51:58;13.80;1.00
4727;DHT22;2377;51.734;8.950;2023-10-09T01:54:30;14.00;1.00
4727;DHT22;2377;51.734;8.950;2023-10-09T01:57:02;14.00;1.00
4727;DHT22;2377;51.734;8.950;2023-10-09T01:59:35;14.10;1.00
4727;DHT22;2377;51.734;8.950;2023-10-09T02:02:04;14.30;1.00
4727;DHT22;2377;51.734;8.950;2023-10-09T02:04:40;14.30;1.00
4727;DHT22;2377;51.734;8.950;2023-10-09T02:07:07;14.50;1.00
4727;DHT22;2377;51.734;8.950;2023-10-09T02:09:36;14.60;1.00
4727;DHT22;2377;51.734;8.950;2023-10-09T02:12:13;14.60;1.00
4727;DHT22;2377;51.734;8.950;2023-10-09T02:14:40;14.70;1.00
4727;DHT22;2377;51.734;8.950;2023-10-09T02:17:09;14.80;1.00
4727;DHT22;2377;51.734;8.950;2023-10-09T02:19:44;14.90;1.00
4727;DHT22;2377;51.734;8.950;2023-10-09T02:22:15;15.00;1.00
4727;DHT22;2377;51.734;8.950;2023-10-09T02:24:45;15.00;1.00
4727;DHT22;2377;51.734;8.950;2023-10-09T02:27:23;15.10;1.00
4727;DHT22;2377;51.734;8.950;2023-10-09T02:30:12;15.10;1.00
4727;DHT22;2377;51.734;8.950;2023-10-09T02:32:44;15.10;1.00
4727;DHT22;2377;51.734;8.950;2023-10-09T02:35:15;15.20;1.00
4727;DHT22;2377;51.734;8.950;2023-10-09T02:38:02;15.30;1.00
4727;DHT22;2377;51.734;8.950;2023-10-09T02:40:33;15.40;1.00
4727;DHT22;2377;51.734;8.950;2023-10-09T02:43:18;15.40;1.00
4727;DHT22;2377;51.734;8.950;2023-10-09T02:45:46;15.50;1.00
4727;DHT22;2377;51.734;8.950;2023-10-09T02:48:17;15.50;1.00
4727;DHT22;2377;51.734;8.950;2023-10-09T02:50:46;15.50;1.00
4727;DHT22;2377;51.734;8.950;2023-10-09T02:53:16;15.50;1.00
4727;DHT22;2377;51.734;8.950;2023-10-09T02:55:56;15.50;1.00
4727;DHT22;2377;51.734;8.950;2023-10-09T02:58:38;15.50;1.00
4727;DHT22;2377;51.734;8.950;2023-10-09T03:01:10;15.50;1.00
4727;DHT22;2377;51.734;8.950;2023-10-09T03:03:39;15.50;1.00
4727;DHT22;2377;51.734;8.950;2023-10-09T03:06:10;15.50;1.00
4727;DHT22;2377;51.734;8.950;2023-10-09T03:08:38;15.40;1.00
4727;DHT22;2377;51.734;8.950;2023-10-09T03:11:08;15.50;1.00
4727;DHT22;2377;51.734;8.950;2023-10-09T03:13:41;15.40;1.00
4727;DHT22;2377;51.734;8.950;2023-10-09T03:16:10;15.30;1.00
4727;DHT22;2377;51.734;8.950;2023-10-09T03:18:45;15.40;1.00
4727;DHT22;2377;51.734;8.950;2023-10-09T03:21:13;15.40;1.00
4727;DHT22;2377;51.734;8.950;2023-10-09T03:23:43;15.30;1.00
4727;DHT22;2377;51.734;8.950;2023-10-09T03:26:16;15.40;1.00
4727;DHT22;2377;51.734;8.950;2023-10-09T03:28:45;15.30;1.00
4727;DHT22;2377;51.734;8.950;2023-10-09T03:31:12;15.30;1.00
4727;DHT22;2377;51.734;8.950;2023-10-09T03:33:40;15.30;1.00
4727;DHT22;2377;51.734;8.950;2023-10-09T03:36:07;15.40;1.00
4727;DHT22;2377;51.734;8.950;2023-10-09T03:38:36;15.30;1.00
4727;DHT22;2377;51.734;8.950;2023-10-09T03:41:04;15.30;1.00
4727;DHT22;2377;51.734;8.950;2023-10-09T03:43:34;15.40;1.00
4727;DHT22;2377;51.734;8.950;2023-10-09T03:46:03;15.30;1.00
4727;DHT22;2377;51.734;8.950;2023-10-09T03:48:39;15.30;1.00
4727;DHT22;2377;51.734;8.950;2023-10-09T03:51:09;15.30;1.00
4727;DHT22;2377;51.734;8.950;2023-10-09T03:53:38;15.30;1.00
4727;DHT22;2377;51.734;8.950;2023-10-09T03:56:06;15.30;1.00
4727;DHT22;2377;51.734;8.950;2023-10-09T03:58:40;15.30;1.00
4727;DHT22;2377;51.734;8.950;2023-10-09T04:01:11;15.20;1.00
4727;DHT22;2377;51.734;8.950;2023-10-09T04:03:44;15.30;1.00
4727;DHT22;2377;51.734;8.950;2023-10-09T04:06:11;15.30;1.00
4727;DHT22;2377;51.734;8.950;2023-10-09T04:08:38;15.20;1.00
4727;DHT22;2377;51.734;8.950;2023-10-09T04:11:13;15.30;1.00
4727;DHT22;2377;51.734;8.950;2023-10-09T04:13:44;15.30;1.00
4727;DHT22;2377;51.734;8.950;2023-10-09T04:16:12;15.30;1.00
4727;DHT22;2377;51.734;8.950;2023-10-09T04:19:00;15.30;1.00
4727;DHT22;2377;51.734;8.950;2023-10-09T04:21:33;15.30;1.00
4727;DHT22;2377;51.734;8.950;2023-10-09T04:24:00;15.30;1.00
4727;DHT22;2377;51.734;8.950;2023-10-09T04:26:49;15.30;1.00
4727;DHT22;2377;51.734;8.950;2023-10-09T04:29:24;15.30;1.00
4727;DHT22;2377;51.734;8.950;2023-10-09T04:31:54;15.20;1.00
4727;DHT22;2377;51.734;8.950;2023-10-09T04:34:22;15.20;1.00
4727;DHT22;2377;51.734;8.950;2023-10-09T04:36:56;15.20;1.00
4727;DHT22;2377;51.734;8.950;2023-10-09T04:39:26;15.20;1.00
4727;DHT22;2377;51.734;8.950;2023-10-09T04:42:12;15.30;1.00
4727;DHT22;2377;51.734;8.950;2023-10-09T04:45:01;15.20;1.00
4727;DHT22;2377;51.734;8.950;2023-10-09T04:47:48;15.10;1.00
4727;DHT22;2377;51.734;8.950;2023-10-09T04:50:31;15.20;1.00
4727;DHT22;2377;51.734;8.950;2023-10-09T04:53:21;15.10;1.00
4727;DHT22;2377;51.734;8.950;2023-10-09T04:55:49;15.20;1.00
4727;DHT22;2377;51.734;8.950;2023-10-09T04:58:24;15.10;1.00
4727;DHT22;2377;51.734;8.950;2023-10-09T05:00:54;15.20;1.00
4727;DHT22;2377;51.734;8.950;2023-10-09T05:03:39;15.20;1.00
4727;DHT22;2377;51.734;8.950;2023-10-09T05:06:10;15.20;1.00
4727;DHT22;2377;51.734;8.950;2023-10-09T05:08:54;15.20;1.00
4727;DHT22;2377;51.734;8.950;2023-10-09T05:11:34;15.30;1.00
4727;DHT22;2377;51.734;8.950;2023-10-09T05:14:19;15.30;1.00
4727;DHT22;2377;51.734;8.950;2023-10-09T05:17:05;15.30;1.00
4727;DHT22;2377;51.734;8.950;2023-10-09T05:19:41;15.30;1.00
4727;DHT22;2377;51.734;8.950;2023-10-09T05:22:20;15.30;1.00
4727;DHT22;2377;51.734;8.950;2023-10-09T05:25:03;15.30;1.00
4727;DHT22;2377;51.734;8.950;2023-10-09T05:27:45;15.30;1.00
4727;DHT22;2377;51.734;8.950;2023-10-09T05:30:16;15.30;1.00
4727;DHT22;2377;51.734;8.950;2023-10-09T05:32:54;15.30;1.00
4727;DHT22;2377;51.734;8.950;2023-10-09T05:35:25;15.40;1.00
4727;DHT22;2377;51.734;8.950;2023-10-09T05:38:07;15.50;1.00
4727;DHT22;2377;51.734;8.950;2023-10-09T05:40:50;15.50;1.00
4727;DHT22;2377;51.734;8.950;2023-10-09T05:43:40;15.40;1.00
4727;DHT22;2377;51.734;8.950;2023-10-09T05:46:39;15.50;1.00
4727;DHT22;2377;51.734;8.950;2023-10-09T05:49:28;15.50;1.00
4727;DHT22;2377;51.734;8.950;2023-10-09T05:52:11;15.50;1.00
4727;DHT22;2377;51.734;8.950;2023-10-09T05:54:52;15.50;1.00
4727;DHT22;2377;51.734;8.950;2023-10-09T05:57:49;15.50;1.00
4727;DHT22;2377;51.734;8.950;2023-10-09T06:00:35;15.50;1.00
4727;DHT22;2377;51.734;8.950;2023-10-09T06:03:19;15.50;1.00
4727;DHT22;2377;51.734;8.950;2023-10-09T06:06:11;15.40;1.00
4727;DHT22;2377;51.734;8.950;2023-10-09T06:08:58;15.50;1.00
4727;DHT22;2377;51.734;8.950;2023-10-09T06:11:45;15.50;1.00
4727;DHT22;2377;51.734;8.950;2023-10-09T06:14:22;15.40;1.00
4727;DHT22;2377;51.734;8.950;2023-10-09T06:17:12;15.50;1.00
4727;DHT22;2377;51.734;8.950;2023-10-09T06:19:50;15.50;1.00
4727;DHT22;2377;51.734;8.950;2023-10-09T06:22:24;15.40;1.00
4727;DHT22;2377;51.734;8.950;2023-10-09T06:25:09;15.50;1.00
4727;DHT22;2377;51.734;8.950;2023-10-09T06:27:37;15.50;1.00
4727;DHT22;2377;51.734;8.950;2023-10-09T06:30:23;15.50;1.00
4727;DHT22;2377;51.734;8.950;2023-10-09T06:32:52;15.50;1.00
4727;DHT22;2377;51.734;8.950;2023-10-09T06:35:34;15.50;1.00
4727;DHT22;2377;51.734;8.950;2023-10-09T06:38:02;15.50;1.00
4727;DHT22;2377;51.734;8.950;2023-10-09T06:40:49;15.50;1.00
4727;DHT22;2377;51.734;8.950;2023-10-09T06:43:43;15.60;1.00
4727;DHT22;2377;51.734;8.950;2023-10-09T06:46:17;15.60;1.00
4727;DHT22;2377;51.734;8.950;2023-10-09T06:48:58;15.60;1.00
4727;DHT22;2377;51.734;8.950;2023-10-09T06:51:41;15.60;1.00
4727;DHT22;2377;51.734;8.950;2023-10-09T06:54:07;15.60;1.00
4727;DHT22;2377;51.734;8.950;2023-10-09T06:56:43;15.60;1.00
4727;DHT22;2377;51.734;8.950;2023-10-09T06:59:28;15.60;1.00
4727;DHT22;2377;51.734;8.950;2023-10-09T07:02:08;15.70;1.00
4727;DHT22;2377;51.734;8.950;2023-10-09T07:04:51;15.60;1.00
4727;DHT22;2377;51.734;8.950;2023-10-09T07:07:21;15.60;1.00
4727;DHT22;2377;51.734;8.950;2023-10-09T07:09:51;15.60;1.00
4727;DHT22;2377;51.734;8.950;2023-10-09T07:12:36;15.70;1.00
4727;DHT22;2377;51.734;8.950;2023-10-09T07:15:09;15.60;1.00
4727;DHT22;2377;51.734;8.950;2023-10-09T07:17:58;15.70;1.00
4727;DHT22;2377;51.734;8.950;2023-10-09T07:20:44;15.60;1.00
4727;DHT22;2377;51.734;8.950;2023-10-09T07:23:25;15.60;1.00
4727;DHT22;2377;51.734;8.950;2023-10-09T07:26:02;15.60;1.00
4727;DHT22;2377;51.734;8.950;2023-10-09T07:28:45;15.60;1.00
4727;DHT22;2377;51.734;8.950;2023-10-09T07:31:19;15.60;1.00
4727;DHT22;2377;51.734;8.950;2023-10-09T07:33:54;15.60;1.00
4727;DHT22;2377;51.734;8.950;2023-10-09T07:36:25;15.60;1.00
4727;DHT22;2377;51.734;8.950;2023-10-09T07:39:04;15.60;1.00
4727;DHT22;2377;51.734;8.950;2023-10-09T07:41:42;15.70;1.00
4727;DHT22;2377;51.734;8.950;2023-10-09T07:44:27;15.70;1.00
4727;DHT22;2377;51.734;8.950;2023-10-09T07:47:04;15.70;1.00
4727;DHT22;2377;51.734;8.950;2023-10-09T07:49:46;15.70;1.00
4727;DHT22;2377;51.734;8.950;2023-10-09T07:52:20;15.70;1.00
4727;DHT22;2377;51.734;8.950;2023-10-09T07:54:51;15.80;1.00
4727;DHT22;2377;51.734;8.950;2023-10-09T07:57:27;15.80;1.00
4727;DHT22;2377;51.734;8.950;2023-10-09T08:00:04;15.80;1.00
4727;DHT22;2377;51.734;8.950;2023-10-09T08:02:59;15.90;1.00
4727;DHT22;2377;51.734;8.950;2023-10-09T08:05:29;16.00;1.00
4727;DHT22;2377;51.734;8.950;2023-10-09T08:08:01;16.00;1.00
4727;DHT22;2377;51.734;8.950;2023-10-09T08:11:07;16.00;1.00
4727;DHT22;2377;51.734;8.950;2023-10-09T08:13:52;16.10;1.00
4727;DHT22;2377;51.734;8.950;2023-10-09T08:16:26;16.10;1.00
4727;DHT22;2377;51.734;8.950;2023-10-09T08:19:02;16.10;1.00
4727;DHT22;2377;51.734;8.950;2023-10-09T08:21:48;16.10;1.00
4727;DHT22;2377;51.734;8.950;2023-10-09T08:24:42;16.10;1.00
4727;DHT22;2377;51.734;8.950;2023-10-09T08:27:18;16.10;1.00
4727;DHT22;2377;51.734;8.950;2023-10-09T08:30:12;16.10;1.00
4727;DHT22;2377;51.734;8.950;2023-10-09T08:32:54;16.10;1.00
4727;DHT22;2377;51.734;8.950;2023-10-09T08:35:28;16.20;1.00
4727;DHT22;2377;51.734;8.950;2023-10-09T08:38:01;16.20;1.00
4727;DHT22;2377;51.734;8.950;2023-10-09T08:40:34;16.20;1.00
4727;DHT22;2377;51.734;8.950;2023-10-09T08:43:09;16.30;1.00
4727;DHT22;2377;51.734;8.950;2023-10-09T08:45:45;16.20;1.00
4727;DHT22;2377;51.734;8.950;2023-10-09T08:48:14;16.30;1.00
4727;DHT22;2377;51.734;8.950;2023-10-09T08:50:42;16.30;1.00
4727;DHT22;2377;51.734;8.950;2023-10-09T08:53:12;16.30;1.00
4727;DHT22;2377;51.734;8.950;2023-10-09T08:55:42;16.30;1.00
4727;DHT22;2377;51.734;8.950;2023-10-09T08:58:12;16.30;1.00
4727;DHT22;2377;51.734;8.950;2023-10-09T09:00:44;16.30;1.00
4727;DHT22;2377;51.734;8.950;2023-10-09T09:03:12;16.30;1.00
4727;DHT22;2377;51.734;8.950;2023-10-09T09:05:42;16.30;1.00
4727;DHT22;2377;51.734;8.950;2023-10-09T09:08:23;16.30;1.00
4727;DHT22;2377;51.734;8.950;2023-10-09T09:10:56;16.30;1.00
4727;DHT22;2377;51.734;8.950;2023-10-09T09:13:31;16.30;1.00
4727;DHT22;2377;51.734;8.950;2023-10-09T09:15:59;16.30;1.00
4727;DHT22;2377;51.734;8.950;2023-10-09T09:18:28;16.40;1.00
4727;DHT22;2377;51.734;8.950;2023-10-09T09:21:17;16.30;1.00
4727;DHT22;2377;51.734;8.950;2023-10-09T09:23:55;16.30;1.00
4727;DHT22;2377;51.734;8.950;2023-10-09T09:26:38;16.40;1.00
4727;DHT22;2377;51.734;8.950;2023-10-09T09:29:12;16.50;1.00
4727;DHT22;2377;51.734;8.950;2023-10-09T09:31:52;16.50;1.00
4727;DHT22;2377;51.734;8.950;2023-10-09T09:34:20;16.50;1.00
4727;DHT22;2377;51.734;8.950;2023-10-09T09:36:53;16.50;1.00
4727;DHT22;2377;51.734;8.950;2023-10-09T09:39:25;16.50;1.00
4727;DHT22;2377;51.734;8.950;2023-10-09T09:41:57;16.50;1.00
4727;DHT22;2377;51.734;8.950;2023-10-09T09:44:33;16.50;1.00
4727;DHT22;2377;51.734;8.950;2023-10-09T09:47:09;16.50;1.00
4727;DHT22;2377;51.734;8.950;2023-10-09T09:49:41;16.60;1.00
4727;DHT22;2377;51.734;8.950;2023-10-09T09:52:09;16.60;1.00
4727;DHT22;2377;51.734;8.950;2023-10-09T09:54:39;16.70;1.00
4727;DHT22;2377;51.734;8.950;2023-10-09T09:57:07;16.70;1.00
4727;DHT22;2377;51.734;8.950;2023-10-09T09:59:40;16.70;1.00
4727;DHT22;2377;51.734;8.950;2023-10-09T10:02:22;16.80;1.00
4727;DHT22;2377;51.734;8.950;2023-10-09T10:04:57;16.80;1.00
4727;DHT22;2377;51.734;8.950;2023-10-09T10:07:31;16.80;1.00
4727;DHT22;2377;51.734;8.950;2023-10-09T10:10:35;16.90;1.00
4727;DHT22;2377;51.734;8.950;2023-10-09T10:13:05;16.90;1.00
4727;DHT22;2377;51.734;8.950;2023-10-09T10:16:05;16.90;1.00
4727;DHT22;2377;51.734;8.950;2023-10-09T10:18:58;16.90;1.00
4727;DHT22;2377;51.734;8.950;2023-10-09T10:21:33;16.90;1.00
4727;DHT22;2377;51.734;8.950;2023-10-09T10:24:40;16.90;1.00
4727;DHT22;2377;51.734;8.950;2023-10-09T10:27:25;16.90;1.00
4727;DHT22;2377;51.734;8.950;2023-10-09T10:30:28;17.00;1.00
4727;DHT22;2377;51.734;8.950;2023-10-09T10:33:02;17.00;1.00
4727;DHT22;2377;51.734;8.950;2023-10-09T10:35:41;17.10;1.00
4727;DHT22;2377;51.734;8.950;2023-10-09T10:38:32;17.10;1.00
4727;DHT22;2377;51.734;8.950;2023-10-09T10:41:17;17.10;1.00
4727;DHT22;2377;51.734;8.950;2023-10-09T10:43:50;17.10;1.00
4727;DHT22;2377;51.734;8.950;2023-10-09T10:46:26;17.10;1.00
4727;DHT22;2377;51.734;8.950;2023-10-09T10:49:05;17.10;1.00
4727;DHT22;2377;51.734;8.950;2023-10-09T10:51:46;17.20;1.00
4727;DHT22;2377;51.734;8.950;2023-10-09T10:54:21;17.30;1.00
4727;DHT22;2377;51.734;8.950;2023-10-09T10:57:18;17.30;1.00
4727;DHT22;2377;51.734;8.950;2023-10-09T11:00:10;17.50;1.00
4727;DHT22;2377;51.734;8.950;2023-10-09T11:03:01;17.50;99.90
4727;DHT22;2377;51.734;8.950;2023-10-09T11:05:41;17.60;99.90
4727;DHT22;2377;51.734;8.950;2023-10-09T11:08:16;17.50;99.90
4727;DHT22;2377;51.734;8.950;2023-10-09T11:10:49;17.60;99.90
4727;DHT22;2377;51.734;8.950;2023-10-09T11:13:23;17.50;99.90
4727;DHT22;2377;51.734;8.950;2023-10-09T11:16:04;17.60;99.90
4727;DHT22;2377;51.734;8.950;2023-10-09T11:18:41;17.60;99.90
4727;DHT22;2377;51.734;8.950;2023-10-09T11:21:13;17.60;1.00
4727;DHT22;2377;51.734;8.950;2023-10-09T11:24:00;17.50;1.00
4727;DHT22;2377;51.734;8.950;2023-10-09T11:26:43;17.50;1.00
4727;DHT22;2377;51.734;8.950;2023-10-09T11:29:19;17.50;1.00
4727;DHT22;2377;51.734;8.950;2023-10-09T11:32:00;17.40;1.00
4727;DHT22;2377;51.734;8.950;2023-10-09T11:34:27;17.30;1.00
4727;DHT22;2377;51.734;8.950;2023-10-09T11:36:59;17.30;1.00
4727;DHT22;2377;51.734;8.950;2023-10-09T11:39:29;17.40;1.00
4727;DHT22;2377;51.734;8.950;2023-10-09T11:42:01;17.30;1.00
4727;DHT22;2377;51.734;8.950;2023-10-09T11:44:39;17.30;1.00
4727;DHT22;2377;51.734;8.950;2023-10-09T11:47:11;17.10;1.00
4727;DHT22;2377;51.734;8.950;2023-10-09T11:49:58;17.10;1.00
4727;DHT22;2377;51.734;8.950;2023-10-09T11:52:54;17.10;1.00
4727;DHT22;2377;51.734;8.950;2023-10-09T11:55:37;17.00;1.00
4727;DHT22;2377;51.734;8.950;2023-10-09T11:58:04;17.00;1.00
4727;DHT22;2377;51.734;8.950;2023-10-09T12:00:32;17.00;1.00
4727;DHT22;2377;51.734;8.950;2023-10-09T12:03:12;17.00;1.00
4727;DHT22;2377;51.734;8.950;2023-10-09T12:05:40;17.00;1.00
4727;DHT22;2377;51.734;8.950;2023-10-09T12:08:10;17.00;1.00
4727;DHT22;2377;51.734;8.950;2023-10-09T12:10:41;17.00;1.00
4727;DHT22;2377;51.734;8.950;2023-10-09T12:13:08;17.00;1.00
4727;DHT22;2377;51.734;8.950;2023-10-09T12:15:36;17.00;1.00
4727;DHT22;2377;51.734;8.950;2023-10-09T12:18:07;16.90;1.00
4727;DHT22;2377;51.734;8.950;2023-10-09T12:20:42;16.90;1.00
4727;DHT22;2377;51.734;8.950;2023-10-09T12:23:15;16.90;1.00
4727;DHT22;2377;51.734;8.950;2023-10-09T12:25:43;17.00;1.00
4727;DHT22;2377;51.734;8.950;2023-10-09T12:28:12;17.00;1.00
4727;DHT22;2377;51.734;8.950;2023-10-09T12:30:40;16.90;1.00
4727;DHT22;2377;51.734;8.950;2023-10-09T12:33:08;17.00;1.00
4727;DHT22;2377;51.734;8.950;2023-10-09T12:35:39;16.90;1.00
4727;DHT22;2377;51.734;8.950;2023-10-09T12:38:11;16.90;1.00
4727;DHT22;2377;51.734;8.950;2023-10-09T12:40:44;17.00;1.00
4727;DHT22;2377;51.734;8.950;2023-10-09T12:43:16;16.90;1.00
4727;DHT22;2377;51.734;8.950;2023-10-09T12:45:45;17.00;1.00
4727;DHT22;2377;51.734;8.950;2023-10-09T12:48:12;16.90;1.00
4727;DHT22;2377;51.734;8.950;2023-10-09T12:50:41;17.00;1.00
4727;DHT22;2377;51.734;8.950;2023-10-09T12:53:10;16.90;1.00
4727;DHT22;2377;51.734;8.950;2023-10-09T12:55:43;16.80;1.00
4727;DHT22;2377;51.734;8.950;2023-10-09T12:58:11;16.80;1.00
4727;DHT22;2377;51.734;8.950;2023-10-09T13:00:42;17.00;1.00
4727;DHT22;2377;51.734;8.950;2023-10-09T13:03:18;17.00;1.00
4727;DHT22;2377;51.734;8.950;2023-10-09T13:05:51;17.00;1.00
4727;DHT22;2377;51.734;8.950;2023-10-09T13:08:21;17.00;1.00
4727;DHT22;2377;51.734;8.950;2023-10-09T13:10:51;17.00;1.00
4727;DHT22;2377;51.734;8.950;2023-10-09T13:13:27;16.90;1.00
4727;DHT22;2377;51.734;8.950;2023-10-09T13:16:08;16.80;1.00
4727;DHT22;2377;51.734;8.950;2023-10-09T13:18:39;16.80;1.00
4727;DHT22;2377;51.734;8.950;2023-10-09T13:21:08;16.90;1.00
4727;DHT22;2377;51.734;8.950;2023-10-09T13:23:37;16.90;1.00
4727;DHT22;2377;51.734;8.950;2023-10-09T13:26:12;16.80;1.00
4727;DHT22;2377;51.734;8.950;2023-10-09T13:28:51;16.80;1.00
4727;DHT22;2377;51.734;8.950;2023-10-09T13:31:20;16.80;1.00
4727;DHT22;2377;51.734;8.950;2023-10-09T13:33:52;16.80;1.00
4727;DHT22;2377;51.734;8.950;2023-10-09T13:36:22;16.80;1.00
4727;DHT22;2377;51.734;8.950;2023-10-09T13:38:58;16.80;1.00
4727;DHT22;2377;51.734;8.950;2023-10-09T13:41:45;16.80;1.00
4727;DHT22;2377;51.734;8.950;2023-10-09T13:44:12;16.80;1.00
4727;DHT22;2377;51.734;8.950;2023-10-09T13:46:40;16.80;1.00
4727;DHT22;2377;51.734;8.950;2023-10-09T13:49:07;16.80;1.00
4727;DHT22;2377;51.734;8.950;2023-10-09T13:51:39;16.80;1.00
4727;DHT22;2377;51.734;8.950;2023-10-09T13:54:09;16.70;1.00
4727;DHT22;2377;51.734;8.950;2023-10-09T13:56:44;16.70;1.00
4727;DHT22;2377;51.734;8.950;2023-10-09T13:59:11;16.70;1.00
4727;DHT22;2377;51.734;8.950;2023-10-09T14:01:38;16.60;1.00
4727;DHT22;2377;51.734;8.950;2023-10-09T14:04:13;16.60;1.00
4727;DHT22;2377;51.734;8.950;2023-10-09T14:06:45;16.70;1.00
4727;DHT22;2377;51.734;8.950;2023-10-09T14:09:13;16.70;1.00
4727;DHT22;2377;51.734;8.950;2023-10-09T14:11:55;16.70;1.00
4727;DHT22;2377;51.734;8.950;2023-10-09T14:14:33;16.60;1.00
4727;DHT22;2377;51.734;8.950;2023-10-09T14:17:06;16.70;1.00
4727;DHT22;2377;51.734;8.950;2023-10-09T14:19:38;16.60;1.00
4727;DHT22;2377;51.734;8.950;2023-10-09T14:22:08;16.80;1.00
4727;DHT22;2377;51.734;8.950;2023-10-09T14:24:35;16.70;1.00
4727;DHT22;2377;51.734;8.950;2023-10-09T14:27:04;16.70;1.00
4727;DHT22;2377;51.734;8.950;2023-10-09T14:29:32;16.70;1.00
4727;DHT22;2377;51.734;8.950;2023-10-09T14:32:03;16.70;1.00
4727;DHT22;2377;51.734;8.950;2023-10-09T14:34:31;16.70;1.00
4727;DHT22;2377;51.734;8.950;2023-10-09T14:37:01;16.80;1.00
4727;DHT22;2377;51.734;8.950;2023-10-09T14:39:30;16.80;1.00
4727;DHT22;2377;51.734;8.950;2023-10-09T14:42:02;16.80;1.00
4727;DHT22;2377;51.734;8.950;2023-10-09T14:44:36;16.70;1.00
4727;DHT22;2377;51.734;8.950;2023-10-09T14:47:04;16.80;1.00
4727;DHT22;2377;51.734;8.950;2023-10-09T14:49:32;16.70;1.00
4727;DHT22;2377;51.734;8.950;2023-10-09T14:52:02;16.80;1.00
4727;DHT22;2377;51.734;8.950;2023-10-09T14:54:33;16.80;1.00
4727;DHT22;2377;51.734;8.950;2023-10-09T14:57:01;16.80;1.00
4727;DHT22;2377;51.734;8.950;2023-10-09T14:59:31;16.80;1.00
4727;DHT22;2377;51.734;8.950;2023-10-09T15:01:58;16.80;1.00
4727;DHT22;2377;51.734;8.950;2023-10-09T15:04:26;16.80;1.00
4727;DHT22;2377;51.734;8.950;2023-10-09T15:06:53;16.80;1.00
4727;DHT22;2377;51.734;8.950;2023-10-09T15:09:21;16.80;1.00
4727;DHT22;2377;51.734;8.950;2023-10-09T15:11:50;16.80;1.00
4727;DHT22;2377;51.734;8.950;2023-10-09T15:14:18;16.80;1.00
4727;DHT22;2377;51.734;8.950;2023-10-09T15:16:45;16.80;1.00
4727;DHT22;2377;51.734;8.950;2023-10-09T15:19:12;16.80;1.00
4727;DHT22;2377;51.734;8.950;2023-10-09T15:21:42;16.80;1.00
4727;DHT22;2377;51.734;8.950;2023-10-09T15:24:10;16.80;1.00
4727;DHT22;2377;51.734;8.950;2023-10-09T15:26:41;16.80;1.00
4727;DHT22;2377;51.734;8.950;2023-10-09T15:29:10;16.80;1.00
4727;DHT22;2377;51.734;8.950;2023-10-09T15:31:38;16.80;1.00
4727;DHT22;2377;51.734;8.950;2023-10-09T15:34:07;16.80;1.00
4727;DHT22;2377;51.734;8.950;2023-10-09T15:36:35;16.80;1.00
4727;DHT22;2377;51.734;8.950;2023-10-09T15:39:03;16.90;1.00
4727;DHT22;2377;51.734;8.950;2023-10-09T15:41:33;16.90;1.00
4727;DHT22;2377;51.734;8.950;2023-10-09T15:44:01;16.80;1.00
4727;DHT22;2377;51.734;8.950;2023-10-09T15:46:30;16.90;1.00
4727;DHT22;2377;51.734;8.950;2023-10-09T15:49:00;16.90;1.00
4727;DHT22;2377;51.734;8.950;2023-10-09T15:51:28;16.80;1.00
4727;DHT22;2377;51.734;8.950;2023-10-09T15:53:56;16.90;1.00
4727;DHT22;2377;51.734;8.950;2023-10-09T15:56:24;16.90;1.00
4727;DHT22;2377;51.734;8.950;2023-10-09T15:58:52;16.80;1.00
4727;DHT22;2377;51.734;8.950;2023-10-09T16:01:21;16.90;1.00
4727;DHT22;2377;51.734;8.950;2023-10-09T16:03:51;16.90;1.00
4727;DHT22;2377;51.734;8.950;2023-10-09T16:06:19;16.90;1.00
4727;DHT22;2377;51.734;8.950;2023-10-09T16:08:47;16.90;1.00
4727;DHT22;2377;51.734;8.950;2023-10-09T16:11:19;16.90;1.00
4727;DHT22;2377;51.734;8.950;2023-10-09T16:13:50;16.90;1.00
4727;DHT22;2377;51.734;8.950;2023-10-09T16:16:29;16.90;1.00
4727;DHT22;2377;51.734;8.950;2023-10-09T16:19:01;16.90;1.00
4727;DHT22;2377;51.734;8.950;2023-10-09T16:21:30;17.00;1.00
4727;DHT22;2377;51.734;8.950;2023-10-09T16:24:00;16.90;1.00
4727;DHT22;2377;51.734;8.950;2023-10-09T16:26:31;16.90;1.00
4727;DHT22;2377;51.734;8.950;2023-10-09T16:29:11;16.90;1.00
4727;DHT22;2377;51.734;8.950;2023-10-09T16:31:38;16.90;1.00
4727;DHT22;2377;51.734;8.950;2023-10-09T16:34:09;16.90;1.00
4727;DHT22;2377;51.734;8.950;2023-10-09T16:36:35;16.90;1.00
4727;DHT22;2377;51.734;8.950;2023-10-09T16:39:03;16.90;1.00
4727;DHT22;2377;51.734;8.950;2023-10-09T16:41:44;16.80;1.00
4727;DHT22;2377;51.734;8.950;2023-10-09T16:44:12;16.80;1.00
4727;DHT22;2377;51.734;8.950;2023-10-09T16:46:43;16.80;1.00
4727;DHT22;2377;51.734;8.950;2023-10-09T16:49:13;16.90;1.00
4727;DHT22;2377;51.734;8.950;2023-10-09T16:51:44;16.80;1.00
4727;DHT22;2377;51.734;8.950;2023-10-09T16:54:12;16.90;1.00
4727;DHT22;2377;51.734;8.950;2023-10-09T16:56:41;16.90;1.00
4727;DHT22;2377;51.734;8.950;2023-10-09T16:59:10;16.90;1.00
4727;DHT22;2377;51.734;8.950;2023-10-09T17:01:40;16.80;1.00
4727;DHT22;2377;51.734;8.950;2023-10-09T17:04:07;16.90;1.00
4727;DHT22;2377;51.734;8.950;2023-10-09T17:06:39;16.80;1.00